Time;durP1;ratioP1;P1;durP2;ratioP2;P2;SDS_P1;SDS_P2;PMS_P1;PMS_P2;Temp;Humidity;BMP_temperature;BMP_pressure;BME280_temperature;BME280_humidity;BME280_pressure;Samples;Min_cycle;Max_cycle;Signal;HPM_P1;HPM_P2
2023/01/11 09:50:11;;;;;;;1.90;0.80;;;22.10;72.70;;;;;;5348178;23;20240;-76
2023/01/11 09:52:41;;;;;;;3.80;0.93;;;22.00;73.10;;;;;;4921229;29;20473;-83
2023/01/11 09:55:15;;;;;;;2.17;0.70;;;22.00;73.60;;;;;;4920366;29;20683;-82
2023/01/11 09:57:53;;;;;;;4.22;0.95;;;22.00;74.00;;;;;;4921032;29;20285;-81
2023/01/11 10:00:27;;;;;;;3.13;1.10;;;22.00;74.20;;;;;;4922149;29;20217;-81
2023/01/11 10:03:12;;;;;;;1.10;0.70;;;22.00;74.20;;;;;;4926168;29;20208;-81
2023/01/11 10:05:54;;;;;;;1.42;0.70;;;22.00;74.10;;;;;;4915996;29;20480;-81
2023/01/11 10:08:38;;;;;;;1.77;0.80;;;22.10;73.90;;;;;;4926420;29;20209;-81
2023/01/11 10:11:15;;;;;;;0.85;0.70;;;22.10;73.40;;;;;;4921006;29;20206;-80
2023/01/11 10:13:48;;;;;;;2.45;0.90;;;22.20;73.40;;;;;;4924833;29;20205;-81
2023/01/11 10:16:27;;;;;;;1.40;0.80;;;22.20;73.00;;;;;;4924386;29;20200;-81
2023/01/11 10:19:04;;;;;;;3.35;1.00;;;22.30;72.90;;;;;;4928249;29;20342;-81
2023/01/11 10:21:41;;;;;;;2.92;0.70;;;22.30;72.80;;;;;;4918200;29;20294;-81
2023/01/11 10:24:15;;;;;;;1.75;1.30;;;22.30;72.80;;;;;;4921652;29;20202;-81
2023/01/11 10:26:42;;;;;;;1.38;0.88;;;22.20;72.80;;;;;;4918587;29;20229;-81
2023/01/11 10:29:37;;;;;;;2.15;0.80;;;22.20;72.90;;;;;;4921608;29;20472;-81
2023/01/11 10:32:33;;;;;;;1.20;0.68;;;22.20;72.80;;;;;;4928678;29;20214;-81
2023/01/11 10:35:28;;;;;;;1.35;0.80;;;22.30;72.60;;;;;;4918471;29;20212;-81
2023/01/11 10:41:10;;;;;;;1.30;0.90;;;22.30;72.40;;;;;;4912036;29;20217;-81
2023/01/11 10:43:43;;;;;;;1.00;0.70;;;22.40;72.30;;;;;;4922717;29;20200;-81
2023/01/11 10:46:13;;;;;;;2.63;0.80;;;22.40;72.10;;;;;;4922463;29;20321;-81
2023/01/11 10:48:42;;;;;;;0.90;0.70;;;22.40;72.10;;;;;;4920947;29;20214;-81
2023/01/11 10:51:23;;;;;;;1.90;0.70;;;22.40;72.10;;;;;;4923745;29;20463;-81
2023/01/11 10:54:00;;;;;;;1.33;0.80;;;22.30;72.00;;;;;;4928829;29;20569;-81
2023/01/11 10:56:41;;;;;;;2.45;0.95;;;22.30;72.00;;;;;;4924332;29;20300;-81
2023/01/11 10:59:22;;;;;;;3.20;0.80;;;22.30;72.00;;;;;;4930164;29;20569;-81
2023/01/11 11:01:58;;;;;;;1.40;0.90;;;22.40;72.10;;;;;;4922221;29;20472;-81
2023/01/11 11:05:04;;;;;;;1.35;0.70;;;22.30;72.70;;;;;;4925370;29;20284;-81
2023/01/11 11:07:42;;;;;;;2.53;0.70;;;22.40;72.10;;;;;;4919105;29;20272;-85
2023/01/11 11:10:17;;;;;;;1.13;0.88;;;22.40;72.20;;;;;;4930380;29;20736;-87
2023/01/11 11:12:52;;;;;;;1.60;0.70;;;22.30;72.10;;;;;;4929832;29;20202;-84
2023/01/11 11:15:24;;;;;;;1.65;0.80;;;22.30;72.20;;;;;;4925403;29;20456;-83
2023/01/11 11:17:52;;;;;;;5.63;0.90;;;22.30;72.30;;;;;;4928515;29;20212;-84
2023/01/11 11:20:20;;;;;;;2.90;0.87;;;22.30;72.90;;;;;;4934109;29;20488;-87
2023/01/11 11:22:49;;;;;;;1.97;0.70;;;22.30;72.60;;;;;;4932518;29;20947;-80
2023/01/11 11:25:21;;;;;;;2.10;1.00;;;22.30;73.00;;;;;;4922146;29;20465;-87
2023/01/11 11:27:51;;;;;;;1.60;0.90;;;22.40;73.50;;;;;;4920424;29;20884;-87
2023/01/11 11:30:27;;;;;;;2.93;1.00;;;22.60;73.50;;;;;;4929362;29;20479;-87
2023/01/11 11:32:59;;;;;;;3.83;1.00;;;22.80;72.70;;;;;;4927416;29;20955;-88
2023/01/11 11:35:40;;;;;;;4.50;1.00;;;23.10;72.30;;;;;;4929754;29;20472;-91
2023/01/11 11:38:19;;;;;;;1.33;0.70;;;23.10;71.80;;;;;;4933120;29;20462;-90
2023/01/11 11:40:57;;;;;;;0.93;0.70;;;23.20;71.50;;;;;;4928099;29;20474;-88
2023/01/11 11:43:25;;;;;;;1.10;0.70;;;23.30;71.40;;;;;;4928256;29;20461;-86
2023/01/11 11:45:57;;;;;;;3.53;0.80;;;23.40;71.10;;;;;;4932931;29;20513;-86
2023/01/11 11:48:26;;;;;;;1.27;0.80;;;23.60;70.40;;;;;;4925961;29;20469;-86
2023/01/11 11:50:54;;;;;;;1.80;0.73;;;23.50;70.80;;;;;;4923689;29;20884;-86
2023/01/11 11:53:37;;;;;;;1.47;0.93;;;23.40;70.70;;;;;;4925990;29;20473;-87
2023/01/11 11:56:16;;;;;;;0.93;0.80;;;23.40;71.00;;;;;;4927379;29;20541;-86
2023/01/11 11:58:44;;;;;;;1.40;0.90;;;23.40;71.00;;;;;;4931068;29;20461;-85
2023/01/11 12:01:22;;;;;;;1.10;0.80;;;23.40;71.20;;;;;;4927853;29;20469;-87
2023/01/11 12:03:52;;;;;;;1.20;0.70;;;23.30;71.20;;;;;;4929019;29;20541;-92
2023/01/11 12:06:23;;;;;;;1.30;0.80;;;23.40;71.10;;;;;;4927470;29;20869;-90
2023/01/11 12:08:51;;;;;;;4.03;1.00;;;23.70;70.60;;;;;;4929135;29;20469;-88
2023/01/11 12:11:23;;;;;;;2.77;0.73;;;23.90;70.00;;;;;;4937025;29;20470;-88
2023/01/11 12:14:01;;;;;;;1.20;0.70;;;24.20;69.10;;;;;;4934640;29;20984;-88
2023/01/11 12:16:33;;;;;;;1.97;0.70;;;24.40;68.40;;;;;;4929970;29;20497;-92
2023/01/11 12:19:00;;;;;;;3.80;1.10;;;24.40;68.10;;;;;;4928962;29;20464;-91
2023/01/11 12:21:29;;;;;;;1.83;0.87;;;24.20;68.40;;;;;;4928853;29;20540;-90
2023/01/11 12:24:10;;;;;;;1.23;0.90;;;24.10;68.70;;;;;;4929061;29;20462;-92
2023/01/11 12:26:46;;;;;;;1.30;0.70;;;23.90;69.10;;;;;;4918805;29;20489;-94
2023/01/11 12:29:32;;;;;;;1.90;0.70;;;23.70;69.50;;;;;;4927829;29;20477;-88
2023/01/11 12:32:19;;;;;;;1.30;0.80;;;23.50;70.20;;;;;;4910034;29;20465;-89
2023/01/11 12:35:18;;;;;;;0.90;0.70;;;23.30;70.90;;;;;;4920874;29;20468;-87
2023/01/11 12:37:57;;;;;;;1.10;0.83;;;23.20;71.00;;;;;;4925621;29;20809;-91
2023/01/11 12:40:34;;;;;;;1.20;0.80;;;23.10;71.30;;;;;;4920335;29;20844;-91
2023/01/11 12:43:29;;;;;;;1.20;0.83;;;23.20;71.40;;;;;;4920743;29;20478;-89
2023/01/11 12:46:06;;;;;;;1.87;1.47;;;23.30;71.40;;;;;;4926475;29;20471;-93
2023/01/11 12:49:00;;;;;;;1.73;0.73;;;23.40;71.40;;;;;;4925077;29;20477;-92
2023/01/11 12:51:44;;;;;;;2.70;0.90;;;23.40;71.20;;;;;;4925273;29;20496;-91
2023/01/11 12:54:32;;;;;;;1.10;0.80;;;23.50;71.10;;;;;;4927353;29;20990;-89
2023/01/11 12:57:20;;;;;;;1.10;0.70;;;23.50;71.10;;;;;;4928921;29;20828;-82
2023/01/11 13:00:09;;;;;;;2.07;0.90;;;23.50;71.00;;;;;;4922608;29;20469;-88
2023/01/11 13:02:56;;;;;;;3.23;0.90;;;23.50;70.90;;;;;;4924735;29;20833;-84
2023/01/11 13:05:27;;;;;;;1.47;0.90;;;23.40;71.20;;;;;;4933265;29;20476;-84
2023/01/11 13:08:05;;;;;;;1.33;0.90;;;23.40;71.10;;;;;;4923920;29;20531;-84
2023/01/11 13:10:50;;;;;;;1.07;0.70;;;23.40;71.00;;;;;;4920960;29;20459;-85
2023/01/11 13:13:23;;;;;;;2.70;0.90;;;23.40;70.60;;;;;;4934184;29;20477;-86
2023/01/11 13:16:00;;;;;;;2.00;1.00;;;23.40;71.00;;;;;;4926838;29;20976;-86
2023/01/11 13:18:36;;;;;;;1.20;0.80;;;23.40;71.00;;;;;;4928616;29;20455;-85
2023/01/11 13:21:16;;;;;;;2.03;0.93;;;23.40;71.10;;;;;;4934825;29;20479;-85
2023/01/11 13:23:46;;;;;;;1.67;0.70;;;23.40;71.10;;;;;;4936574;29;20468;-84
2023/01/11 13:26:18;;;;;;;3.42;0.90;;;23.50;71.10;;;;;;4931325;29;20439;-86
2023/01/11 13:28:50;;;;;;;1.30;0.90;;;23.50;71.10;;;;;;4933265;29;20470;-82
2023/01/11 13:31:19;;;;;;;2.17;0.90;;;23.50;71.10;;;;;;4928798;29;20447;-82
2023/01/11 13:33:52;;;;;;;2.20;1.20;;;23.40;71.40;;;;;;4926615;29;20444;-82
2023/01/11 13:36:24;;;;;;;1.73;0.80;;;23.40;71.50;;;;;;4929189;29;20440;-85
2023/01/11 13:38:57;;;;;;;1.67;0.70;;;23.40;71.70;;;;;;4934909;29;20406;-84
2023/01/11 13:41:27;;;;;;;2.13;0.80;;;23.40;71.60;;;;;;4928812;29;20960;-88
2023/01/11 13:43:57;;;;;;;1.10;0.80;;;23.40;71.50;;;;;;4934134;29;20445;-85
2023/01/11 13:46:40;;;;;;;1.20;0.90;;;23.40;71.50;;;;;;4921958;29;20496;-87
2023/01/11 13:49:14;;;;;;;1.60;0.80;;;23.40;71.50;;;;;;4932371;29;20499;-87
2023/01/11 13:51:46;;;;;;;1.67;0.70;;;23.50;71.60;;;;;;4925228;29;20471;-84
2023/01/11 13:54:16;;;;;;;2.80;0.80;;;23.40;71.60;;;;;;4928363;29;20470;-84
2023/01/11 13:56:49;;;;;;;4.20;0.90;;;23.40;71.70;;;;;;4929918;29;20462;-84
2023/01/11 13:59:23;;;;;;;1.00;0.67;;;23.40;72.00;;;;;;4928759;29;20449;-84
2023/01/11 14:01:57;;;;;;;2.17;0.80;;;23.40;72.00;;;;;;4919079;29;20464;-86
2023/01/11 14:04:31;;;;;;;1.60;0.90;;;23.40;72.00;;;;;;4932714;29;20473;-85
2023/01/11 14:07:12;;;;;;;1.47;0.80;;;23.40;71.90;;;;;;4936032;29;20498;-89
2023/01/11 14:10:02;;;;;;;3.23;0.80;;;23.40;71.90;;;;;;4924269;29;20533;-86
2023/01/11 14:12:42;;;;;;;1.20;0.80;;;23.40;71.90;;;;;;4923126;29;20466;-88
2023/01/11 14:15:26;;;;;;;1.07;0.90;;;23.50;72.00;;;;;;4928774;29;20461;-83
2023/01/11 14:18:10;;;;;;;1.10;0.80;;;23.40;71.90;;;;;;4925211;29;20517;-78
2023/01/11 14:20:45;;;;;;;1.87;1.10;;;23.10;72.50;;;;;;4926909;29;20932;-79
2023/01/11 14:23:15;;;;;;;3.80;1.13;;;22.80;73.20;;;;;;4933045;29;20841;-78
2023/01/11 14:25:58;;;;;;;1.20;0.70;;;22.70;73.90;;;;;;4921228;29;20458;-77
2023/01/11 14:28:48;;;;;;;1.40;0.83;;;22.60;74.20;;;;;;4928525;29;20504;-78
2023/01/11 14:31:37;;;;;;;1.83;0.93;;;22.60;74.40;;;;;;4925866;29;20472;-79
2023/01/11 14:34:27;;;;;;;1.20;0.90;;;22.50;74.40;;;;;;4929092;29;20458;-78
2023/01/11 14:37:12;;;;;;;1.10;0.70;;;22.50;74.30;;;;;;4929951;29;20466;-78
2023/01/11 14:40:02;;;;;;;1.93;0.70;;;22.50;74.40;;;;;;4927064;29;20450;-78
2023/01/11 14:43:05;;;;;;;1.10;0.70;;;22.50;74.50;;;;;;4933335;29;20450;-77
2023/01/11 14:45:48;;;;;;;2.03;0.80;;;22.50;74.50;;;;;;4922949;29;20473;-78
2023/01/11 14:48:27;;;;;;;1.30;0.80;;;22.50;74.40;;;;;;4927514;29;21017;-77
2023/01/11 14:51:23;;;;;;;1.20;0.80;;;22.50;74.30;;;;;;4934082;29;20500;-78
2023/01/11 14:53:55;;;;;;;1.33;0.80;;;22.50;74.30;;;;;;4926788;29;21033;-78
2023/01/11 14:56:46;;;;;;;2.20;0.83;;;22.50;74.20;;;;;;4929430;29;20460;-77
2023/01/11 14:59:23;;;;;;;1.00;0.77;;;22.50;74.20;;;;;;4929049;29;20490;-79
2023/01/11 15:02:26;;;;;;;1.20;0.70;;;22.50;73.80;;;;;;4927032;29;20466;-88
2023/01/11 15:05:27;;;;;;;2.10;0.83;;;22.60;73.70;;;;;;4927676;29;20466;-88
2023/01/11 15:08:22;;;;;;;8.43;0.80;;;22.90;73.20;;;;;;4931865;29;20508;-87
2023/01/11 15:10:56;;;;;;;2.13;0.80;;;23.00;72.80;;;;;;4928450;29;20453;-92
2023/01/11 15:13:26;;;;;;;1.30;0.80;;;23.10;72.80;;;;;;4932036;29;20467;-91
2023/01/11 15:18:51;;;;;;;1.57;0.73;;;23.10;72.60;;;;;;4937085;29;20601;-87
2023/01/11 15:21:25;;;;;;;1.20;0.70;;;23.10;72.90;;;;;;4938891;29;20452;-90
2023/01/11 15:23:56;;;;;;;1.00;0.70;;;23.20;72.80;;;;;;4939450;29;20963;-89
2023/01/11 15:26:24;;;;;;;1.73;0.87;;;23.10;72.60;;;;;;4938428;29;20832;-88
2023/01/11 15:28:53;;;;;;;1.67;0.80;;;23.20;72.50;;;;;;4934347;29;20484;-91
2023/01/11 15:31:32;;;;;;;1.53;0.70;;;23.20;72.60;;;;;;4930345;29;20827;-89
2023/01/11 15:34:05;;;;;;;0.93;0.73;;;23.20;72.80;;;;;;4935734;29;20474;-85
2023/01/11 15:36:55;;;;;;;0.93;0.70;;;23.20;73.00;;;;;;4922849;29;20469;-86
2023/01/11 15:39:33;;;;;;;0.90;0.70;;;23.30;72.70;;;;;;4930604;29;20471;-89
2023/01/11 15:42:23;;;;;;;2.80;0.90;;;23.30;72.70;;;;;;4929086;29;20499;-90
2023/01/11 15:46:51;;;;;;;0.90;0.70;;;23.30;72.50;;;;;;4925742;29;20471;-81
2023/01/11 15:48:35;;;;;;;1.20;0.80;;;23.30;72.50;;;;;;4894699;29;21002;-87
2023/01/11 15:51:30;;;;;;;1.83;0.70;;;23.40;72.70;;;;;;4935544;29;20481;-88
2023/01/11 15:54:22;;;;;;;0.93;0.60;;;23.40;72.30;;;;;;4932010;29;20465;-89
2023/01/11 15:57:32;;;;;;;1.23;0.70;;;23.50;72.30;;;;;;4925977;29;20592;-85
2023/01/11 16:00:29;;;;;;;1.40;0.83;;;23.50;72.10;;;;;;4931683;29;20476;-85
2023/01/11 16:03:24;;;;;;;1.70;1.60;;;23.50;72.80;;;;;;4931460;29;20471;-84
2023/01/11 16:05:59;;;;;;;3.07;0.70;;;23.50;72.00;;;;;;4928121;29;20976;-86
2023/01/11 16:08:32;;;;;;;1.40;0.77;;;23.50;72.00;;;;;;4934139;29;20489;-84
2023/01/11 16:11:12;;;;;;;2.60;0.90;;;23.50;72.20;;;;;;4928274;29;20470;-87
2023/01/11 16:14:06;;;;;;;1.13;0.80;;;23.50;72.10;;;;;;4931590;29;20951;-86
2023/01/11 16:16:38;;;;;;;1.30;0.83;;;23.50;72.10;;;;;;4928002;29;20468;-90
2023/01/11 16:19:12;;;;;;;2.80;1.43;;;23.50;72.10;;;;;;4926977;29;20999;-89
2023/01/11 16:21:40;;;;;;;0.90;0.70;;;23.50;72.10;;;;;;4923168;29;20953;-89
2023/01/11 16:24:10;;;;;;;1.40;0.80;;;23.50;72.00;;;;;;4934111;29;20454;-88
2023/01/11 16:26:40;;;;;;;1.00;0.73;;;23.50;72.10;;;;;;4922095;29;20476;-88
2023/01/11 16:29:14;;;;;;;0.90;0.70;;;23.50;72.00;;;;;;4924728;29;20484;-88
2023/01/11 16:31:55;;;;;;;4.53;1.00;;;23.60;72.00;;;;;;4928220;29;20481;-86
2023/01/11 16:34:21;;;;;;;1.20;0.80;;;23.50;72.00;;;;;;4930002;29;20463;-86
2023/01/11 16:36:48;;;;;;;4.93;1.07;;;23.50;72.10;;;;;;4929629;29;20990;-86
2023/01/11 16:39:20;;;;;;;1.40;0.93;;;23.40;72.20;;;;;;4931634;29;20465;-85
2023/01/11 16:41:53;;;;;;;1.10;0.80;;;23.40;72.30;;;;;;4918047;29;20466;-84
2023/01/11 16:44:33;;;;;;;0.90;0.70;;;23.40;72.20;;;;;;4934608;29;20468;-89
2023/01/11 16:47:13;;;;;;;0.90;0.70;;;23.50;72.40;;;;;;4928692;29;20491;-90
2023/01/11 16:49:41;;;;;;;1.10;0.80;;;23.50;72.50;;;;;;4929753;29;20501;-84
2023/01/11 16:52:45;;;;;;;2.00;0.87;;;23.40;72.30;;;;;;4921324;29;20554;-89
2023/01/11 16:55:21;;;;;;;3.07;0.70;;;23.40;72.40;;;;;;4920161;29;21017;-86
2023/01/11 16:57:53;;;;;;;1.07;0.70;;;23.50;72.50;;;;;;4920024;29;20549;-84
2023/01/11 17:00:27;;;;;;;1.00;0.70;;;23.40;72.50;;;;;;4931394;29;20811;-87
2023/01/11 17:03:04;;;;;;;0.90;0.70;;;23.40;72.50;;;;;;4933083;29;20872;-86
2023/01/11 17:05:31;;;;;;;4.40;0.87;;;23.40;72.60;;;;;;4920968;29;20459;-83
2023/01/11 17:07:58;;;;;;;1.83;1.10;;;23.40;71.80;;;;;;4881028;29;20489;-87
2023/01/11 17:10:27;;;;;;;2.93;0.93;;;23.50;71.80;;;;;;4890241;29;20471;-89
2023/01/11 17:16:06;;;;;;;2.00;0.80;;;23.40;71.10;;;;;;4885983;29;20551;-88
2023/01/11 17:18:32;;;;;;;2.33;0.90;;;23.40;70.70;;;;;;4898981;29;20451;-87
2023/01/11 17:20:59;;;;;;;1.90;1.10;;;23.30;70.50;;;;;;4887193;29;20468;-84
2023/01/11 17:23:26;;;;;;;1.93;1.00;;;23.30;70.30;;;;;;4888367;29;20476;-85
2023/01/11 17:25:56;;;;;;;2.80;0.90;;;23.30;69.30;;;;;;4887944;29;20491;-82
2023/01/11 17:28:25;;;;;;;2.67;1.50;;;23.20;69.00;;;;;;4901640;29;20226;-85
2023/01/11 17:30:53;;;;;;;1.58;1.00;;;23.10;67.50;;;;;;4897951;29;20951;-84
2023/01/11 17:33:27;;;;;;;4.40;1.67;;;23.00;68.30;;;;;;4885069;29;20214;-85
2023/01/11 17:35:55;;;;;;;2.47;1.25;;;23.00;68.70;;;;;;4878264;29;20218;-86
2023/01/11 17:39:05;;;;;;;;;;;;;;;;;;;;;
2023/01/11 17:47:22;;;;;;;3.53;1.67;;;22.90;68.50;;;;;;4886584;29;20665;-84
2023/01/11 17:49:51;;;;;;;6.38;2.03;;;22.80;67.80;;;;;;4883475;29;20247;-83
2023/01/11 17:52:21;;;;;;;2.00;1.15;;;22.90;68.10;;;;;;4881509;29;20674;-82
2023/01/11 17:55:00;;;;;;;3.42;1.75;;;22.80;68.20;;;;;;4882405;29;20260;-84
2023/01/11 17:57:27;;;;;;;3.55;1.50;;;22.40;69.30;;;;;;4882795;29;20549;-84
2023/01/11 18:00:23;;;;;;;4.00;1.37;;;22.20;70.60;;;;;;4885037;29;20210;-83
2023/01/11 18:02:51;;;;;;;3.37;1.47;;;22.10;70.80;;;;;;4881801;29;20494;-84
2023/01/11 18:05:22;;;;;;;3.45;1.33;;;22.20;71.10;;;;;;4876768;29;20527;-84
2023/01/11 18:07:51;;;;;;;2.35;1.30;;;22.30;70.90;;;;;;4885814;29;20603;-84
2023/01/11 18:10:21;;;;;;;3.03;1.27;;;22.50;70.70;;;;;;4886609;29;20209;-84
2023/01/11 18:12:50;;;;;;;3.88;1.30;;;22.60;70.30;;;;;;4878418;29;20951;-83
2023/01/11 18:15:27;;;;;;;3.87;1.20;;;22.80;70.10;;;;;;4878060;29;20204;-83
2023/01/11 18:17:56;;;;;;;2.97;1.30;;;22.80;69.70;;;;;;4883731;29;20762;-83
2023/01/11 18:20:36;;;;;;;1.90;1.00;;;22.80;69.70;;;;;;4893850;29;20590;-83
2023/01/11 18:23:15;;;;;;;1.60;0.90;;;22.80;69.60;;;;;;4882319;29;20468;-84
2023/01/11 18:25:44;;;;;;;1.20;1.00;;;22.80;69.70;;;;;;4882898;29;20471;-83
2023/01/11 18:28:26;;;;;;;1.85;1.30;;;22.80;69.90;;;;;;4889813;29;20505;-83
2023/01/11 18:30:56;;;;;;;2.50;1.10;;;22.80;70.00;;;;;;4892860;29;20214;-83
2023/01/11 18:33:25;;;;;;;2.20;1.13;;;22.70;70.00;;;;;;4883540;29;20465;-81
2023/01/11 18:35:56;;;;;;;2.10;1.60;;;22.70;70.20;;;;;;4891369;29;20574;-80
2023/01/11 18:38:27;;;;;;;1.73;1.00;;;22.70;70.40;;;;;;4892056;29;20561;-80
2023/01/11 18:40:55;;;;;;;1.80;1.00;;;22.60;70.40;;;;;;4885774;29;20548;-79
2023/01/11 18:43:25;;;;;;;2.67;1.20;;;22.60;70.50;;;;;;4882598;29;20998;-80
2023/01/11 18:45:52;;;;;;;3.13;1.63;;;22.60;70.70;;;;;;4882214;29;20465;-79
2023/01/11 18:48:19;;;;;;;2.93;1.33;;;22.50;70.70;;;;;;4877974;29;20486;-81
2023/01/11 18:50:47;;;;;;;2.40;1.30;;;22.50;70.90;;;;;;4881917;29;20496;-80
2023/01/11 18:53:16;;;;;;;2.77;1.50;;;22.50;71.10;;;;;;4897247;29;20471;-81
2023/01/11 18:55:43;;;;;;;3.83;1.07;;;22.40;71.20;;;;;;4892028;29;20463;-82
2023/01/11 18:58:09;;;;;;;1.57;1.07;;;22.40;71.40;;;;;;4880601;29;20473;-82
2023/01/11 19:00:44;;;;;;;2.80;1.20;;;22.30;72.20;;;;;;4878789;29;20465;-86
2023/01/11 19:03:12;;;;;;;1.90;1.10;;;22.30;71.70;;;;;;4885867;29;20463;-83
2023/01/11 19:05:39;;;;;;;1.30;1.10;;;22.20;71.80;;;;;;4889475;29;20854;-85
2023/01/11 19:08:08;;;;;;;1.40;0.90;;;22.20;72.00;;;;;;4888533;29;20528;-87
2023/01/11 19:10:36;;;;;;;1.70;1.10;;;22.30;72.30;;;;;;4877828;29;20977;-86
2023/01/11 19:13:03;;;;;;;2.17;1.10;;;22.20;72.10;;;;;;4893383;29;20484;-84
2023/01/11 19:15:30;;;;;;;1.70;1.20;;;22.10;72.30;;;;;;4889558;29;20273;-85
2023/01/11 19:17:56;;;;;;;2.30;1.40;;;22.10;73.10;;;;;;4883463;29;20472;-85
2023/01/11 19:20:23;;;;;;;1.43;1.10;;;22.10;72.30;;;;;;4884941;29;20943;-85
2023/01/11 19:22:50;;;;;;;1.33;0.90;;;22.20;72.50;;;;;;4881457;29;20470;-84
2023/01/11 19:25:17;;;;;;;1.20;0.90;;;22.10;72.40;;;;;;4885135;29;20471;-84
2023/01/11 19:27:45;;;;;;;1.27;1.13;;;22.10;72.40;;;;;;4885817;29;20551;-83
2023/01/11 19:30:13;;;;;;;2.63;1.40;;;22.20;72.40;;;;;;4882904;29;21005;-84
2023/01/11 19:32:40;;;;;;;3.03;1.40;;;22.20;72.50;;;;;;4881682;29;20481;-85
2023/01/11 19:35:07;;;;;;;2.43;1.10;;;22.90;73.30;;;;;;4886656;29;20490;-84
2023/01/11 19:37:34;;;;;;;2.20;1.20;;;22.20;72.30;;;;;;4882878;29;20579;-83
2023/01/11 19:40:02;;;;;;;2.30;1.20;;;22.20;72.10;;;;;;4884462;29;20654;-85
2023/01/11 19:42:29;;;;;;;1.73;0.90;;;22.20;72.10;;;;;;4882650;29;20488;-84
2023/01/11 19:44:57;;;;;;;3.00;0.87;;;22.30;72.10;;;;;;4883121;29;20468;-84
2023/01/11 19:47:24;;;;;;;3.60;0.90;;;22.30;72.10;;;;;;4884105;29;20522;-84
2023/01/11 19:49:55;;;;;;;3.07;1.10;;;22.30;71.90;;;;;;4886474;29;20499;-85
2023/01/11 19:52:22;;;;;;;1.43;1.00;;;22.30;71.90;;;;;;4880649;29;20463;-84
2023/01/11 19:54:50;;;;;;;1.97;1.10;;;22.30;72.70;;;;;;4885629;29;20486;-84
2023/01/11 19:57:19;;;;;;;2.13;1.00;;;22.80;72.50;;;;;;4884299;29;20464;-85
2023/01/11 19:59:47;;;;;;;1.37;0.93;;;22.50;72.00;;;;;;4884885;29;20647;-84
2023/01/11 20:02:17;;;;;;;1.93;1.07;;;22.40;72.10;;;;;;4879825;29;20945;-84
2023/01/11 20:04:44;;;;;;;2.27;1.17;;;22.40;71.80;;;;;;4884839;29;21229;-85
2023/01/11 20:07:13;;;;;;;1.23;0.80;;;22.40;71.90;;;;;;4882667;29;20463;-83
2023/01/11 20:09:40;;;;;;;1.07;0.80;;;22.30;71.70;;;;;;4883122;29;20227;-84
2023/01/11 20:12:10;;;;;;;1.83;1.30;;;22.30;71.70;;;;;;4882391;29;20471;-85
2023/01/11 20:14:39;;;;;;;2.43;1.03;;;22.10;71.50;;;;;;4879300;29;20457;-84
2023/01/11 20:17:09;;;;;;;1.40;0.97;;;22.40;71.90;;;;;;4877488;29;20565;-85
2023/01/11 20:19:37;;;;;;;1.80;1.00;;;22.40;71.90;;;;;;4877224;29;20587;-84
2023/01/11 20:22:14;;;;;;;1.37;0.90;;;22.30;71.90;;;;;;4880934;29;20951;-84
2023/01/11 20:24:41;;;;;;;1.63;1.03;;;22.30;71.80;;;;;;4883262;29;20467;-85
2023/01/11 20:27:08;;;;;;;2.23;1.07;;;22.20;71.80;;;;;;4882523;29;20485;-85
2023/01/11 20:29:39;;;;;;;2.23;0.90;;;22.30;71.90;;;;;;4876337;29;20483;-85
2023/01/11 20:32:06;;;;;;;1.73;1.20;;;22.30;71.90;;;;;;4882426;29;20474;-84
2023/01/11 20:34:37;;;;;;;1.53;0.90;;;22.40;72.20;;;;;;4883235;29;20838;-85
2023/01/11 20:37:04;;;;;;;1.10;0.80;;;22.20;72.30;;;;;;4882630;29;20497;-85
2023/01/11 20:39:31;;;;;;;1.70;1.07;;;22.20;72.00;;;;;;4881417;29;20520;-85
2023/01/11 20:41:57;;;;;;;2.20;1.40;;;22.20;72.00;;;;;;4884645;29;20539;-84
2023/01/11 20:44:26;;;;;;;1.50;0.90;;;22.20;72.00;;;;;;4878718;29;20467;-85
2023/01/11 20:46:55;;;;;;;1.60;1.20;;;22.40;72.30;;;;;;4879905;29;20492;-81
2023/01/11 20:49:23;;;;;;;1.63;0.80;;;22.30;72.40;;;;;;4880588;29;20493;-82
2023/01/11 20:51:51;;;;;;;2.08;1.88;;;22.20;72.00;;;;;;4881828;29;20474;-81
2023/01/11 20:54:19;;;;;;;2.50;1.00;;;22.20;72.10;;;;;;4881771;29;20211;-81
2023/01/11 20:56:46;;;;;;;1.40;0.93;;;22.20;72.30;;;;;;4884540;29;20485;-80
2023/01/11 20:59:15;;;;;;;1.88;1.35;;;22.20;72.10;;;;;;4880444;29;20455;-85
2023/01/11 21:01:42;;;;;;;1.30;0.83;;;22.20;72.20;;;;;;4883275;29;20216;-82
2023/01/11 21:04:11;;;;;;;1.30;0.83;;;22.20;72.10;;;;;;4882360;29;20462;-84
2023/01/11 21:06:39;;;;;;;2.20;1.13;;;22.20;72.20;;;;;;4886070;29;20879;-83
2023/01/11 21:09:09;;;;;;;1.70;1.07;;;22.20;72.30;;;;;;4880057;29;20513;-83
2023/01/11 21:11:36;;;;;;;2.38;1.08;;;22.20;72.30;;;;;;4880608;29;20486;-85
2023/01/11 21:14:06;;;;;;;1.50;0.88;;;22.20;72.40;;;;;;4882772;29;20199;-85
2023/01/11 21:16:33;;;;;;;1.55;0.80;;;22.20;72.40;;;;;;4881437;29;20541;-84
2023/01/11 21:19:01;;;;;;;1.40;0.90;;;22.20;72.50;;;;;;4883502;29;20223;-85
2023/01/11 21:21:30;;;;;;;1.23;1.00;;;22.30;72.50;;;;;;4884920;29;20221;-85
2023/01/11 21:23:59;;;;;;;3.23;1.17;;;22.20;72.40;;;;;;4884044;29;20470;-84
2023/01/11 21:26:28;;;;;;;1.67;1.00;;;22.20;72.30;;;;;;4880901;29;20550;-84
2023/01/11 21:28:57;;;;;;;1.40;0.83;;;22.20;72.50;;;;;;4881254;29;20579;-84
2023/01/11 21:31:24;;;;;;;0.90;0.65;;;22.20;72.40;;;;;;4883581;29;20456;-84
2023/01/11 21:33:51;;;;;;;1.52;0.95;;;22.20;72.40;;;;;;4882583;29;20218;-83
2023/01/11 21:36:19;;;;;;;1.33;1.00;;;22.20;72.40;;;;;;4883816;29;21705;-83
2023/01/11 21:38:46;;;;;;;2.03;1.00;;;22.20;72.50;;;;;;4883209;29;20210;-83
2023/01/11 21:41:15;;;;;;;1.35;1.05;;;22.60;73.10;;;;;;4881021;29;20210;-82
2023/01/11 21:43:43;;;;;;;1.95;1.10;;;22.20;72.40;;;;;;4880063;29;20215;-82
2023/01/11 21:46:12;;;;;;;1.85;1.23;;;22.20;72.40;;;;;;4878063;29;20218;-83
2023/01/11 21:48:39;;;;;;;2.38;0.80;;;22.10;72.30;;;;;;4882795;29;20654;-83
2023/01/11 21:51:08;;;;;;;1.73;1.02;;;22.10;72.40;;;;;;4878074;29;20211;-84
2023/01/11 21:53:36;;;;;;;2.47;1.20;;;22.10;72.60;;;;;;4882802;29;20203;-81
2023/01/11 21:56:03;;;;;;;2.60;1.57;;;22.00;72.50;;;;;;4879260;29;20418;-83
2023/01/11 21:58:30;;;;;;;1.83;1.08;;;22.00;72.80;;;;;;4881909;29;20479;-83
2023/01/11 22:00:59;;;;;;;1.20;0.90;;;22.00;73.00;;;;;;4879619;29;20677;-83
2023/01/11 22:03:29;;;;;;;1.38;1.15;;;21.80;72.90;;;;;;4879975;29;20502;-83
2023/01/11 22:06:00;;;;;;;1.40;0.95;;;21.80;73.10;;;;;;4880891;29;20203;-82
2023/01/11 22:08:27;;;;;;;1.70;0.80;;;21.80;73.20;;;;;;4881338;29;20570;-82
2023/01/11 22:10:58;;;;;;;1.45;1.00;;;21.70;73.30;;;;;;4882181;29;20237;-85
2023/01/11 22:13:25;;;;;;;1.00;0.80;;;21.70;73.60;;;;;;4884473;29;20230;-86
2023/01/11 22:15:52;;;;;;;1.45;1.23;;;21.70;73.80;;;;;;4880524;29;20226;-86
2023/01/11 22:18:21;;;;;;;1.25;0.90;;;21.70;74.70;;;;;;4883704;29;20213;-85
2023/01/11 22:20:48;;;;;;;2.17;1.52;;;21.60;73.90;;;;;;4881379;29;20243;-85
2023/01/11 22:23:58;;;;;;;1.07;0.80;;;21.60;74.20;;;;;;4880041;29;20207;-84
2023/01/11 22:26:28;;;;;;;1.40;0.90;;;21.50;74.00;;;;;;4866842;29;21002;-83
2023/01/11 22:29:13;;;;;;;1.65;0.80;;;21.50;74.30;;;;;;4886005;29;20274;-84
2023/01/11 22:31:42;;;;;;;1.80;0.90;;;21.70;74.60;;;;;;4881151;29;20217;-84
2023/01/11 22:34:10;;;;;;;1.13;0.90;;;21.40;74.30;;;;;;4879970;29;21051;-84
2023/01/11 22:36:37;;;;;;;1.30;0.85;;;21.40;74.40;;;;;;4877815;29;20594;-84
2023/01/11 22:39:04;;;;;;;1.05;0.80;;;21.40;74.50;;;;;;4880186;29;20208;-85
2023/01/11 22:41:31;;;;;;;2.08;0.90;;;21.30;74.70;;;;;;4881855;29;20216;-83
2023/01/11 22:43:58;;;;;;;1.63;0.80;;;21.30;74.60;;;;;;4879438;29;20522;-83
2023/01/11 22:46:26;;;;;;;2.05;0.90;;;21.30;74.60;;;;;;4877776;29;20207;-84
2023/01/11 22:48:54;;;;;;;1.45;0.95;;;21.80;75.50;;;;;;4879404;29;20294;-84
2023/01/11 22:51:25;;;;;;;2.13;0.90;;;21.20;74.80;;;;;;4879818;29;20212;-83
2023/01/11 22:53:53;;;;;;;1.40;0.85;;;21.20;74.70;;;;;;4881476;29;20203;-84
2023/01/11 22:56:23;;;;;;;2.05;0.90;;;21.30;75.00;;;;;;4880653;29;20332;-84
2023/01/11 22:58:51;;;;;;;1.92;1.00;;;21.20;75.00;;;;;;4881331;29;20610;-84
2023/01/11 23:01:20;;;;;;;1.42;0.77;;;21.20;75.00;;;;;;4876012;29;20203;-86
2023/01/11 23:03:48;;;;;;;1.00;0.80;;;21.10;75.10;;;;;;4879445;29;20211;-84
2023/01/11 23:06:17;;;;;;;1.08;0.80;;;21.10;75.20;;;;;;4882450;29;20204;-83
2023/01/11 23:08:45;;;;;;;1.13;0.93;;;21.10;75.30;;;;;;4884640;29;20243;-83
2023/01/11 23:11:14;;;;;;;1.40;0.80;;;21.10;75.30;;;;;;4885167;29;20262;-84
2023/01/11 23:13:54;;;;;;;0.95;0.70;;;21.00;76.10;;;;;;4885016;29;20218;-85
2023/01/11 23:16:21;;;;;;;1.50;0.70;;;21.00;75.40;;;;;;4884386;29;20265;-84
2023/01/11 23:18:48;;;;;;;2.45;0.82;;;21.00;75.50;;;;;;4884922;29;20217;-85
2023/01/11 23:21:15;;;;;;;1.00;0.80;;;21.00;75.50;;;;;;4884027;29;20203;-85
2023/01/11 23:23:44;;;;;;;1.42;0.90;;;21.00;75.70;;;;;;4882687;29;20584;-86
2023/01/11 23:26:12;;;;;;;1.00;0.80;;;20.90;75.50;;;;;;4882354;29;20250;-85
2023/01/11 23:28:39;;;;;;;1.17;0.90;;;20.90;75.70;;;;;;4883720;29;20207;-85